Aviation Digital Data Service (ADDS)

Output produced by METARs form (0850 UTC 25 September 2016)
found at http://www.aviationweather.gov/adds/metars/
 
KILG 250751Z 02006KT 10SM CLR 12/07 A3017 RMK AO2 SLP216 T01220067 $
KILG 250520Z 2506/2606 35005KT P6SM SKC 
     FM251200 01009KT P6SM FEW050 
     FM252000 33006KT P6SM FEW050 
     FM260300 VRB03KT P6SM FEW050